»·PEaware :: WAT169 KSNA-KLAS

WAT169 :: KSNA-KLAS

FLIGHT INFORMATION

Flight Status: Arrived
Operator: Unknown
More flights by this operator :: More flights under this callsign
Pilot: Marty P. (27464)
Aircraft: BOEING 737-800
(B738)
More flights by this aircraft type
Origin: KSNA John Wayne-Orange Co
United States
Destination: KLAS McCarran Intl
United States
More flights between these airports :: More routes between these airports
Route: FINZZ2 MISEN KEPEC6
File this flight plan on PilotEdge
Remarks:
Altitude:
(Current/Filed)
27,000ft
Speed:
(Current/Filed)
470kts
Departed: 17-May-20 08:18 AM
Arrived: 17-May-20 09:02 AM
Distance/Time
Traveled:
197nm/0:44
Distance/Time
To Go:
Arrived

Flight Plot

Page will automatically refresh every two minutes.


Map Options




Map Legend


Flown Route
Filed Route
Departure Airport
Arrival Airport
Navaid (VOR, NDB)
Fix

Horizontal Profiles

Position Reports

Time Latitude Longitude Heading Altitude Ground
Speed
17-May-20 07:41 33.675005 -117.865072 118 66ft 0kts
17-May-20 07:42 33.675005 -117.865072 118 66ft 0kts
17-May-20 07:43 33.675005 -117.865072 118 66ft 0kts
17-May-20 07:44 33.675005 -117.865072 118 66ft 0kts
17-May-20 07:45 33.675005 -117.865072 118 66ft 0kts
17-May-20 07:46 33.675005 -117.865072 118 66ft 0kts
17-May-20 07:47 33.675005 -117.865072 118 66ft 0kts
17-May-20 07:48 33.675005 -117.865072 118 66ft 0kts
17-May-20 07:49 33.675005 -117.865072 118 66ft 0kts
17-May-20 07:50 33.675005 -117.865072 118 66ft 0kts
17-May-20 07:51 33.675005 -117.865072 118 66ft 0kts
17-May-20 07:52 33.675005 -117.865072 118 66ft 0kts
17-May-20 07:53 33.675005 -117.865072 118 66ft 0kts
17-May-20 07:54 33.675005 -117.865072 118 66ft 0kts
17-May-20 07:55 33.675005 -117.865072 118 66ft 0kts
17-May-20 07:56 33.675005 -117.865072 118 66ft 0kts
17-May-20 07:57 33.675005 -117.865072 118 66ft 0kts
17-May-20 07:58 33.675005 -117.865072 118 66ft 0kts
17-May-20 07:59 33.675005 -117.865072 118 66ft 0kts
17-May-20 08:00 33.675005 -117.865072 118 66ft 0kts
17-May-20 08:01 33.675005 -117.865072 118 66ft 0kts
17-May-20 08:02 33.675005 -117.865072 118 66ft 0kts
17-May-20 08:03 33.675005 -117.865072 118 66ft 0kts
17-May-20 08:04 33.675005 -117.865072 118 66ft 0kts
17-May-20 08:05 33.675005 -117.865072 118 66ft 0kts
17-May-20 08:06 33.675005 -117.865072 118 66ft 0kts
17-May-20 08:08 33.675008 -117.865079 118 66ft 1kts
17-May-20 08:09 33.675139 -117.865684 68 66ft 2kts
17-May-20 08:10 33.674969 -117.865934 28 66ft 0kts
17-May-20 08:11 33.674969 -117.865934 28 66ft 0kts
17-May-20 08:12 33.674969 -117.865934 28 66ft 0kts
17-May-20 08:13 33.674993 -117.865917 29 66ft 2kts
17-May-20 08:14 33.678022 -117.863993 27 66ft 16kts
17-May-20 08:15 33.680659 -117.863117 302 66ft 0kts
17-May-20 08:16 33.680659 -117.863117 301 66ft 0kts
17-May-20 08:17 33.681351 -117.865231 214 66ft 5kts
17-May-20 08:18 33.661818 -117.877757 209 734ft 158kts
17-May-20 08:19 33.608003 -117.894536 185 2483ft 241kts
17-May-20 08:20 33.547057 -117.926781 222 6341ft 247kts
17-May-20 08:21 33.506805 -117.995604 260 9602ft 266kts
17-May-20 08:22 33.537301 -118.076314 317 11963ft 323kts
17-May-20 08:23 33.628872 -118.101768 13 14482ft 366kts
17-May-20 08:23 33.707510 -118.061011 24 16632ft 383kts
17-May-20 08:25 33.821240 -117.994631 24 19487ft 399kts
17-May-20 08:26 33.920427 -117.927664 33 21163ft 429kts
17-May-20 08:26 34.001496 -117.856450 35 22849ft 439kts
17-May-20 08:28 34.108374 -117.740078 47 24952ft 455kts
17-May-20 08:28 34.178007 -117.642937 49 26291ft 464kts
17-May-20 08:29 34.260951 -117.522032 49 26979ft 479kts
17-May-20 08:30 34.346395 -117.395090 50 26976ft 496kts
17-May-20 08:31 34.433270 -117.265122 50 26974ft 508kts
17-May-20 08:32 34.522312 -117.131512 50 26972ft 516kts
17-May-20 08:33 34.614070 -116.996444 49 26996ft 520kts
17-May-20 08:34 34.706496 -116.861729 49 27025ft 519kts
17-May-20 08:35 34.798232 -116.727526 49 26985ft 501kts
17-May-20 08:36 34.893318 -116.608504 38 26940ft 494kts
17-May-20 08:37 34.999653 -116.504096 36 26401ft 479kts
17-May-20 08:38 35.099892 -116.404321 42 24021ft 457kts
17-May-20 08:39 35.190194 -116.293410 44 23667ft 465kts
17-May-20 08:40 35.277553 -116.184347 45 21143ft 444kts
17-May-20 08:41 35.361662 -116.078721 45 18935ft 422kts
17-May-20 08:42 35.445312 -115.973109 45 18014ft 417kts
17-May-20 08:43 35.527663 -115.868842 46 15636ft 425kts
17-May-20 08:44 35.606704 -115.768423 46 13870ft 386kts
17-May-20 08:45 35.673800 -115.682768 47 13045ft 327kts
17-May-20 08:46 35.739868 -115.603352 33 13027ft 333kts
17-May-20 08:47 35.827094 -115.571788 0 13028ft 330kts
17-May-20 08:48 35.919024 -115.566049 5 13011ft 331kts
17-May-20 08:49 35.989989 -115.501980 65 12309ft 328kts
17-May-20 08:50 36.022202 -115.403382 74 11376ft 295kts
17-May-20 08:51 36.026447 -115.308041 99 10363ft 277kts
17-May-20 08:52 36.019611 -115.215923 99 9677ft 254kts
17-May-20 08:53 36.014262 -115.134185 98 9088ft 232kts
17-May-20 08:54 36.010426 -115.055242 97 7786ft 227kts
17-May-20 08:55 36.006859 -114.980268 97 5712ft 220kts
17-May-20 08:56 36.025179 -114.923513 5 5542ft 204kts
17-May-20 08:57 36.073960 -114.946376 281 4904ft 189kts
17-May-20 08:58 36.073672 -115.006177 264 3925ft 158kts
17-May-20 08:59 36.073908 -115.060743 266 3218ft 158kts
17-May-20 09:00 36.073731 -115.113341 267 2425ft 150kts
17-May-20 09:01 36.074043 -115.148941 293 2191ft 29kts
17-May-20 09:02 36.074746 -115.150563 305 2191ft 0kts
17-May-20 09:03 36.075329 -115.151277 323 2191ft 12kts
17-May-20 09:04 36.078757 -115.152342 87 2191ft 7kts
17-May-20 09:05 36.079458 -115.148002 26 2191ft 8kts
17-May-20 09:06 36.079913 -115.147055 63 2191ft 0kts
17-May-20 09:07 36.079913 -115.147055 63 2191ft 0kts

Navigation Log

Ident Type
Flight plan parsing failed, navigation log unavailable